sensor_id;sensor_type;location;lat;lon;timestamp;temperature;humidity
47779;DHT22;33538;48.432;11.350;2023-04-01T00:00:20;9.80;92.00
47779;DHT22;33538;48.432;11.350;2023-04-01T00:02:47;9.80;92.00
47779;DHT22;33538;48.432;11.350;2023-04-01T00:05:14;9.80;92.00
47779;DHT22;33538;48.432;11.350;2023-04-01T00:07:41;9.80;92.00
47779;DHT22;33538;48.432;11.350;2023-04-01T00:10:09;9.70;92.00
47779;DHT22;33538;48.432;11.350;2023-04-01T00:12:37;9.70;92.10
47779;DHT22;33538;48.432;11.350;2023-04-01T00:15:07;9.70;92.10
47779;DHT22;33538;48.432;11.350;2023-04-01T00:17:35;9.70;92.10
47779;DHT22;33538;48.432;11.350;2023-04-01T00:20:02;9.70;92.20
47779;DHT22;33538;48.432;11.350;2023-04-01T00:22:29;9.70;92.10
47779;DHT22;33538;48.432;11.350;2023-04-01T00:24:56;9.70;92.20
47779;DHT22;33538;48.432;11.350;2023-04-01T00:27:22;9.70;92.20
47779;DHT22;33538;48.432;11.350;2023-04-01T00:29:49;9.70;92.30
47779;DHT22;33538;48.432;11.350;2023-04-01T00:32:17;9.70;92.30
47779;DHT22;33538;48.432;11.350;2023-04-01T00:34:44;9.70;92.40
47779;DHT22;33538;48.432;11.350;2023-04-01T00:37:11;9.70;92.50
47779;DHT22;33538;48.432;11.350;2023-04-01T00:39:38;9.70;92.70
47779;DHT22;33538;48.432;11.350;2023-04-01T00:42:04;9.70;92.80
47779;DHT22;33538;48.432;11.350;2023-04-01T00:44:33;9.60;93.00
47779;DHT22;33538;48.432;11.350;2023-04-01T00:47:00;9.60;93.10
47779;DHT22;33538;48.432;11.350;2023-04-01T00:49:31;9.70;93.30
47779;DHT22;33538;48.432;11.350;2023-04-01T00:52:01;9.60;93.30
47779;DHT22;33538;48.432;11.350;2023-04-01T00:54:30;9.60;93.40
47779;DHT22;33538;48.432;11.350;2023-04-01T00:57:00;9.60;93.50
47779;DHT22;33538;48.432;11.350;2023-04-01T00:59:29;9.60;93.70
47779;DHT22;33538;48.432;11.350;2023-04-01T01:01:58;9.60;93.70
47779;DHT22;33538;48.432;11.350;2023-04-01T01:04:26;9.60;93.70
47779;DHT22;33538;48.432;11.350;2023-04-01T01:07:05;9.60;93.70
47779;DHT22;33538;48.432;11.350;2023-04-01T01:09:41;9.60;93.70
47779;DHT22;33538;48.432;11.350;2023-04-01T01:12:13;9.60;93.60
47779;DHT22;33538;48.432;11.350;2023-04-01T01:14:49;9.60;93.70
47779;DHT22;33538;48.432;11.350;2023-04-01T01:17:23;9.50;93.70
47779;DHT22;33538;48.432;11.350;2023-04-01T01:20:03;9.60;93.70
47779;DHT22;33538;48.432;11.350;2023-04-01T01:29:04;9.50;93.70
47779;DHT22;33538;48.432;11.350;2023-04-01T01:31:37;9.50;93.80
47779;DHT22;33538;48.432;11.350;2023-04-01T01:34:16;9.50;93.80
47779;DHT22;33538;48.432;11.350;2023-04-01T01:36:49;9.50;93.80
47779;DHT22;33538;48.432;11.350;2023-04-01T01:39:20;9.50;93.70
47779;DHT22;33538;48.432;11.350;2023-04-01T01:41:49;9.40;93.70
47779;DHT22;33538;48.432;11.350;2023-04-01T01:44:16;9.50;93.70
47779;DHT22;33538;48.432;11.350;2023-04-01T01:46:45;9.50;93.60
47779;DHT22;33538;48.432;11.350;2023-04-01T01:49:13;9.50;93.60
47779;DHT22;33538;48.432;11.350;2023-04-01T01:51:41;9.50;93.60
47779;DHT22;33538;48.432;11.350;2023-04-01T01:54:12;9.50;93.50
47779;DHT22;33538;48.432;11.350;2023-04-01T01:56:39;9.50;93.50
47779;DHT22;33538;48.432;11.350;2023-04-01T01:59:11;9.50;93.40
47779;DHT22;33538;48.432;11.350;2023-04-01T02:01:41;9.50;93.40
47779;DHT22;33538;48.432;11.350;2023-04-01T02:04:10;9.50;93.30
47779;DHT22;33538;48.432;11.350;2023-04-01T02:06:39;9.50;93.40
47779;DHT22;33538;48.432;11.350;2023-04-01T02:09:10;9.50;93.30
47779;DHT22;33538;48.432;11.350;2023-04-01T02:11:41;9.50;93.40
47779;DHT22;33538;48.432;11.350;2023-04-01T02:14:11;9.40;93.40
47779;DHT22;33538;48.432;11.350;2023-04-01T02:16:43;9.40;93.50
47779;DHT22;33538;48.432;11.350;2023-04-01T02:19:13;9.40;93.50
47779;DHT22;33538;48.432;11.350;2023-04-01T02:21:42;9.40;93.60
47779;DHT22;33538;48.432;11.350;2023-04-01T02:24:13;9.40;93.60
47779;DHT22;33538;48.432;11.350;2023-04-01T02:26:41;9.40;93.60
47779;DHT22;33538;48.432;11.350;2023-04-01T02:29:09;9.30;93.60
47779;DHT22;33538;48.432;11.350;2023-04-01T02:31:38;9.30;93.70
47779;DHT22;33538;48.432;11.350;2023-04-01T02:34:05;9.30;93.70
47779;DHT22;33538;48.432;11.350;2023-04-01T02:36:32;9.30;93.80
47779;DHT22;33538;48.432;11.350;2023-04-01T02:39:01;9.30;93.80
47779;DHT22;33538;48.432;11.350;2023-04-01T02:41:30;9.30;93.80
47779;DHT22;33538;48.432;11.350;2023-04-01T02:43:57;9.30;93.90
47779;DHT22;33538;48.432;11.350;2023-04-01T02:46:24;9.30;93.90
47779;DHT22;33538;48.432;11.350;2023-04-01T02:48:51;9.30;93.90
47779;DHT22;33538;48.432;11.350;2023-04-01T02:51:18;9.30;94.00
47779;DHT22;33538;48.432;11.350;2023-04-01T02:53:44;9.20;93.90
47779;DHT22;33538;48.432;11.350;2023-04-01T02:56:11;9.20;93.90
47779;DHT22;33538;48.432;11.350;2023-04-01T02:58:39;9.20;93.90
47779;DHT22;33538;48.432;11.350;2023-04-01T03:01:06;9.20;93.90
47779;DHT22;33538;48.432;11.350;2023-04-01T03:03:33;9.20;93.80
47779;DHT22;33538;48.432;11.350;2023-04-01T03:06:05;9.20;93.90
47779;DHT22;33538;48.432;11.350;2023-04-01T03:08:32;9.20;93.80
47779;DHT22;33538;48.432;11.350;2023-04-01T03:10:58;9.20;93.80
47779;DHT22;33538;48.432;11.350;2023-04-01T03:13:26;9.20;93.80
47779;DHT22;33538;48.432;11.350;2023-04-01T03:15:54;9.20;93.70
47779;DHT22;33538;48.432;11.350;2023-04-01T03:18:21;9.10;93.70
47779;DHT22;33538;48.432;11.350;2023-04-01T03:20:48;9.10;93.70
47779;DHT22;33538;48.432;11.350;2023-04-01T03:23:15;9.10;93.70
47779;DHT22;33538;48.432;11.350;2023-04-01T03:25:42;9.10;93.70
47779;DHT22;33538;48.432;11.350;2023-04-01T03:28:09;9.10;93.70
47779;DHT22;33538;48.432;11.350;2023-04-01T03:30:35;9.10;93.70
47779;DHT22;33538;48.432;11.350;2023-04-01T03:33:04;9.10;93.60
47779;DHT22;33538;48.432;11.350;2023-04-01T03:35:31;9.10;93.40
47779;DHT22;33538;48.432;11.350;2023-04-01T03:37:58;9.10;93.40
47779;DHT22;33538;48.432;11.350;2023-04-01T03:40:25;9.10;93.30
47779;DHT22;33538;48.432;11.350;2023-04-01T03:42:51;9.10;93.30
47779;DHT22;33538;48.432;11.350;2023-04-01T03:45:18;9.10;93.20
47779;DHT22;33538;48.432;11.350;2023-04-01T03:47:45;9.10;93.20
47779;DHT22;33538;48.432;11.350;2023-04-01T03:50:13;9.10;93.20
47779;DHT22;33538;48.432;11.350;2023-04-01T03:52:40;9.10;93.20
47779;DHT22;33538;48.432;11.350;2023-04-01T03:55:07;9.10;93.20
47779;DHT22;33538;48.432;11.350;2023-04-01T03:57:34;9.00;93.30
47779;DHT22;33538;48.432;11.350;2023-04-01T04:00:01;9.00;93.40
47779;DHT22;33538;48.432;11.350;2023-04-01T04:02:28;9.00;93.40
47779;DHT22;33538;48.432;11.350;2023-04-01T04:04:54;9.00;93.30
47779;DHT22;33538;48.432;11.350;2023-04-01T04:07:23;9.00;93.40
47779;DHT22;33538;48.432;11.350;2023-04-01T04:09:49;9.00;93.30
47779;DHT22;33538;48.432;11.350;2023-04-01T04:12:16;9.00;93.40
47779;DHT22;33538;48.432;11.350;2023-04-01T04:14:43;9.00;93.30
47779;DHT22;33538;48.432;11.350;2023-04-01T04:17:10;9.00;93.30
47779;DHT22;33538;48.432;11.350;2023-04-01T04:19:37;9.00;93.30
47779;DHT22;33538;48.432;11.350;2023-04-01T04:22:03;8.90;93.30
47779;DHT22;33538;48.432;11.350;2023-04-01T04:24:33;8.90;93.40
47779;DHT22;33538;48.432;11.350;2023-04-01T04:27:00;8.90;93.30
47779;DHT22;33538;48.432;11.350;2023-04-01T04:29:27;9.00;93.30
47779;DHT22;33538;48.432;11.350;2023-04-01T04:31:53;8.90;93.40
47779;DHT22;33538;48.432;11.350;2023-04-01T04:34:20;9.00;93.50
47779;DHT22;33538;48.432;11.350;2023-04-01T04:36:47;9.00;93.40
47779;DHT22;33538;48.432;11.350;2023-04-01T04:39:14;9.00;93.40
47779;DHT22;33538;48.432;11.350;2023-04-01T04:41:42;8.90;93.80
47779;DHT22;33538;48.432;11.350;2023-04-01T04:44:09;8.90;93.50
47779;DHT22;33538;48.432;11.350;2023-04-01T04:46:36;8.90;93.60
47779;DHT22;33538;48.432;11.350;2023-04-01T04:49:03;8.90;93.60
47779;DHT22;33538;48.432;11.350;2023-04-01T04:51:29;9.00;93.50
47779;DHT22;33538;48.432;11.350;2023-04-01T04:53:56;9.00;93.50
47779;DHT22;33538;48.432;11.350;2023-04-01T04:56:23;9.00;93.50
47779;DHT22;33538;48.432;11.350;2023-04-01T04:58:51;9.00;93.50
47779;DHT22;33538;48.432;11.350;2023-04-01T05:01:18;8.90;93.60
47779;DHT22;33538;48.432;11.350;2023-04-01T05:03:46;9.00;93.80
47779;DHT22;33538;48.432;11.350;2023-04-01T05:06:15;9.00;93.90
47779;DHT22;33538;48.432;11.350;2023-04-01T05:08:43;9.00;94.00
47779;DHT22;33538;48.432;11.350;2023-04-01T05:11:12;9.00;94.00
47779;DHT22;33538;48.432;11.350;2023-04-01T05:13:39;8.90;94.20
47779;DHT22;33538;48.432;11.350;2023-04-01T05:16:10;8.90;94.40
47779;DHT22;33538;48.432;11.350;2023-04-01T05:18:36;8.90;94.60
47779;DHT22;33538;48.432;11.350;2023-04-01T05:21:04;8.90;94.70
47779;DHT22;33538;48.432;11.350;2023-04-01T05:23:32;8.80;94.80
47779;DHT22;33538;48.432;11.350;2023-04-01T05:25:58;8.80;94.90
47779;DHT22;33538;48.432;11.350;2023-04-01T05:28:25;8.90;95.10
47779;DHT22;33538;48.432;11.350;2023-04-01T05:30:52;8.80;95.20
47779;DHT22;33538;48.432;11.350;2023-04-01T05:33:20;8.90;95.20
47779;DHT22;33538;48.432;11.350;2023-04-01T05:35:47;8.90;95.10
47779;DHT22;33538;48.432;11.350;2023-04-01T05:38:14;8.90;95.10
47779;DHT22;33538;48.432;11.350;2023-04-01T05:40:40;8.90;95.20
47779;DHT22;33538;48.432;11.350;2023-04-01T05:43:07;8.90;95.20
47779;DHT22;33538;48.432;11.350;2023-04-01T05:45:34;8.90;95.20
47779;DHT22;33538;48.432;11.350;2023-04-01T05:48:01;8.90;95.20
47779;DHT22;33538;48.432;11.350;2023-04-01T05:50:30;8.80;95.20
47779;DHT22;33538;48.432;11.350;2023-04-01T05:52:57;8.90;95.30
47779;DHT22;33538;48.432;11.350;2023-04-01T05:55:23;8.80;95.40
47779;DHT22;33538;48.432;11.350;2023-04-01T05:57:50;8.80;95.40
47779;DHT22;33538;48.432;11.350;2023-04-01T06:00:17;8.80;95.40
47779;DHT22;33538;48.432;11.350;2023-04-01T06:02:44;8.90;95.40
47779;DHT22;33538;48.432;11.350;2023-04-01T06:05:14;8.80;95.40
47779;DHT22;33538;48.432;11.350;2023-04-01T06:07:44;8.90;95.40
47779;DHT22;33538;48.432;11.350;2023-04-01T06:10:16;8.90;95.50
47779;DHT22;33538;48.432;11.350;2023-04-01T06:12:50;8.90;95.50
47779;DHT22;33538;48.432;11.350;2023-04-01T06:15:25;8.90;95.40
47779;DHT22;33538;48.432;11.350;2023-04-01T06:18:10;8.90;95.40
47779;DHT22;33538;48.432;11.350;2023-04-01T06:20:48;8.90;95.30
47779;DHT22;33538;48.432;11.350;2023-04-01T06:23:29;8.90;95.20
47779;DHT22;33538;48.432;11.350;2023-04-01T06:26:06;8.90;95.20
47779;DHT22;33538;48.432;11.350;2023-04-01T06:31:40;9.00;95.10
47779;DHT22;33538;48.432;11.350;2023-04-01T06:34:28;9.00;95.00
47779;DHT22;33538;48.432;11.350;2023-04-01T06:37:16;8.90;95.00
47779;DHT22;33538;48.432;11.350;2023-04-01T06:40:02;9.00;95.00
47779;DHT22;33538;48.432;11.350;2023-04-01T06:42:42;9.00;95.10
47779;DHT22;33538;48.432;11.350;2023-04-01T06:45:25;9.00;95.10
47779;DHT22;33538;48.432;11.350;2023-04-01T06:50:47;9.00;95.20
47779;DHT22;33538;48.432;11.350;2023-04-01T06:53:21;9.00;95.20
47779;DHT22;33538;48.432;11.350;2023-04-01T06:55:55;9.00;95.10
47779;DHT22;33538;48.432;11.350;2023-04-01T06:58:24;9.00;95.20
47779;DHT22;33538;48.432;11.350;2023-04-01T07:00:54;9.10;95.20
47779;DHT22;33538;48.432;11.350;2023-04-01T07:03:29;9.10;95.20
47779;DHT22;33538;48.432;11.350;2023-04-01T07:05:58;9.10;95.20
47779;DHT22;33538;48.432;11.350;2023-04-01T07:08:28;9.10;95.20
47779;DHT22;33538;48.432;11.350;2023-04-01T07:11:01;9.10;95.20
47779;DHT22;33538;48.432;11.350;2023-04-01T07:13:31;9.10;95.20
47779;DHT22;33538;48.432;11.350;2023-04-01T07:16:07;9.10;95.20
47779;DHT22;33538;48.432;11.350;2023-04-01T07:18:38;9.10;95.20
47779;DHT22;33538;48.432;11.350;2023-04-01T07:21:20;9.10;95.20
47779;DHT22;33538;48.432;11.350;2023-04-01T07:23:49;9.10;95.20
47779;DHT22;33538;48.432;11.350;2023-04-01T07:26:20;9.10;95.20
47779;DHT22;33538;48.432;11.350;2023-04-01T07:28:48;9.10;95.20
47779;DHT22;33538;48.432;11.350;2023-04-01T07:31:35;9.20;95.30
47779;DHT22;33538;48.432;11.350;2023-04-01T07:34:09;9.20;95.30
47779;DHT22;33538;48.432;11.350;2023-04-01T07:36:42;9.20;95.20
47779;DHT22;33538;48.432;11.350;2023-04-01T07:39:24;9.20;95.20
47779;DHT22;33538;48.432;11.350;2023-04-01T07:42:01;9.20;95.10
47779;DHT22;33538;48.432;11.350;2023-04-01T07:44:37;9.20;95.10
47779;DHT22;33538;48.432;11.350;2023-04-01T07:47:25;9.20;95.10
47779;DHT22;33538;48.432;11.350;2023-04-01T07:50:05;9.20;95.10
47779;DHT22;33538;48.432;11.350;2023-04-01T07:52:41;9.20;95.10
47779;DHT22;33538;48.432;11.350;2023-04-01T07:55:14;9.20;95.20
47779;DHT22;33538;48.432;11.350;2023-04-01T07:57:50;9.20;95.20
47779;DHT22;33538;48.432;11.350;2023-04-01T08:00:21;9.30;95.30
47779;DHT22;33538;48.432;11.350;2023-04-01T08:03:03;9.30;95.30
47779;DHT22;33538;48.432;11.350;2023-04-01T08:05:40;9.30;95.20
47779;DHT22;33538;48.432;11.350;2023-04-01T08:08:16;9.30;95.00
47779;DHT22;33538;48.432;11.350;2023-04-01T08:10:49;9.30;94.80
47779;DHT22;33538;48.432;11.350;2023-04-01T08:13:29;9.30;94.70
47779;DHT22;33538;48.432;11.350;2023-04-01T08:16:08;9.30;94.80
47779;DHT22;33538;48.432;11.350;2023-04-01T08:18:41;9.30;94.60
47779;DHT22;33538;48.432;11.350;2023-04-01T08:21:13;9.30;95.00
47779;DHT22;33538;48.432;11.350;2023-04-01T08:23:44;9.30;94.60
47779;DHT22;33538;48.432;11.350;2023-04-01T08:26:19;9.30;94.70
47779;DHT22;33538;48.432;11.350;2023-04-01T08:28:54;9.40;94.80
47779;DHT22;33538;48.432;11.350;2023-04-01T08:31:25;9.40;94.80
47779;DHT22;33538;48.432;11.350;2023-04-01T08:33:56;9.40;94.90
47779;DHT22;33538;48.432;11.350;2023-04-01T08:36:26;9.40;94.70
47779;DHT22;33538;48.432;11.350;2023-04-01T08:38:57;9.40;94.50
47779;DHT22;33538;48.432;11.350;2023-04-01T08:42:01;9.40;94.50
47779;DHT22;33538;48.432;11.350;2023-04-01T08:47:39;9.40;94.10
47779;DHT22;33538;48.432;11.350;2023-04-01T08:50:31;9.50;94.00
47779;DHT22;33538;48.432;11.350;2023-04-01T08:53:06;9.40;94.00
47779;DHT22;33538;48.432;11.350;2023-04-01T08:55:56;9.50;94.00
47779;DHT22;33538;48.432;11.350;2023-04-01T08:58:46;9.50;94.20
47779;DHT22;33538;48.432;11.350;2023-04-01T09:01:29;9.50;94.10
47779;DHT22;33538;48.432;11.350;2023-04-01T09:04:22;9.50;94.20
47779;DHT22;33538;48.432;11.350;2023-04-01T09:06:59;9.50;94.20
47779;DHT22;33538;48.432;11.350;2023-04-01T09:10:03;9.60;94.20
47779;DHT22;33538;48.432;11.350;2023-04-01T09:12:49;9.60;94.20
47779;DHT22;33538;48.432;11.350;2023-04-01T09:15:47;9.60;94.20
47779;DHT22;33538;48.432;11.350;2023-04-01T09:18:28;9.60;94.20
47779;DHT22;33538;48.432;11.350;2023-04-01T09:24:14;9.60;94.20
47779;DHT22;33538;48.432;11.350;2023-04-01T09:27:01;9.60;94.20
47779;DHT22;33538;48.432;11.350;2023-04-01T09:29:51;9.60;94.20
47779;DHT22;33538;48.432;11.350;2023-04-01T09:32:54;9.60;94.30
47779;DHT22;33538;48.432;11.350;2023-04-01T09:35:42;9.70;94.30
47779;DHT22;33538;48.432;11.350;2023-04-01T09:38:21;9.70;94.40
47779;DHT22;33538;48.432;11.350;2023-04-01T09:40:55;9.60;94.40
47779;DHT22;33538;48.432;11.350;2023-04-01T09:43:27;9.70;94.50
47779;DHT22;33538;48.432;11.350;2023-04-01T09:46:08;9.70;94.50
47779;DHT22;33538;48.432;11.350;2023-04-01T09:51:59;9.70;94.60
47779;DHT22;33538;48.432;11.350;2023-04-01T09:54:43;9.70;95.00
47779;DHT22;33538;48.432;11.350;2023-04-01T09:57:39;9.70;94.60
47779;DHT22;33538;48.432;11.350;2023-04-01T10:00:25;9.70;94.60
47779;DHT22;33538;48.432;11.350;2023-04-01T10:03:22;9.70;94.60
47779;DHT22;33538;48.432;11.350;2023-04-01T10:06:27;9.70;94.60
47779;DHT22;33538;48.432;11.350;2023-04-01T10:18:36;9.70;94.80
47779;DHT22;33538;48.432;11.350;2023-04-01T10:24:23;9.70;94.80
47779;DHT22;33538;48.432;11.350;2023-04-01T10:27:11;9.80;94.80
47779;DHT22;33538;48.432;11.350;2023-04-01T10:30:21;9.80;94.90
47779;DHT22;33538;48.432;11.350;2023-04-01T10:33:19;9.80;95.00
47779;DHT22;33538;48.432;11.350;2023-04-01T10:36:34;9.80;95.10
47779;DHT22;33538;48.432;11.350;2023-04-01T10:46:02;9.70;95.10
47779;DHT22;33538;48.432;11.350;2023-04-01T10:51:59;9.80;95.30
47779;DHT22;33538;48.432;11.350;2023-04-01T10:54:45;9.80;95.40
47779;DHT22;33538;48.432;11.350;2023-04-01T11:18:49;9.70;97.20
47779;DHT22;33538;48.432;11.350;2023-04-01T11:21:46;9.70;97.50
47779;DHT22;33538;48.432;11.350;2023-04-01T11:27:29;9.70;98.00
47779;DHT22;33538;48.432;11.350;2023-04-01T11:30:33;9.70;98.40
47779;DHT22;33538;48.432;11.350;2023-04-01T11:33:07;9.70;98.80
47779;DHT22;33538;48.432;11.350;2023-04-01T11:36:03;9.70;99.10
47779;DHT22;33538;48.432;11.350;2023-04-01T11:41:38;9.60;99.70
47779;DHT22;33538;48.432;11.350;2023-04-01T11:44:16;9.60;99.70
47779;DHT22;33538;48.432;11.350;2023-04-01T11:46:52;9.60;99.80
47779;DHT22;33538;48.432;11.350;2023-04-01T11:49:44;9.60;99.90
47779;DHT22;33538;48.432;11.350;2023-04-01T11:52:26;9.60;99.90
47779;DHT22;33538;48.432;11.350;2023-04-01T11:55:10;9.60;99.90
47779;DHT22;33538;48.432;11.350;2023-04-01T11:57:58;9.60;99.90
47779;DHT22;33538;48.432;11.350;2023-04-01T12:00:47;9.50;99.90
47779;DHT22;33538;48.432;11.350;2023-04-01T12:03:41;9.50;99.90
47779;DHT22;33538;48.432;11.350;2023-04-01T12:06:14;9.60;99.90
47779;DHT22;33538;48.432;11.350;2023-04-01T12:08:51;9.50;99.90
47779;DHT22;33538;48.432;11.350;2023-04-01T12:11:28;9.50;99.90
47779;DHT22;33538;48.432;11.350;2023-04-01T12:14:05;9.50;99.90
47779;DHT22;33538;48.432;11.350;2023-04-01T12:16:58;9.50;99.90
47779;DHT22;33538;48.432;11.350;2023-04-01T12:19:35;9.50;99.90
47779;DHT22;33538;48.432;11.350;2023-04-01T12:22:36;9.50;99.90
47779;DHT22;33538;48.432;11.350;2023-04-01T12:25:18;9.50;99.90
47779;DHT22;33538;48.432;11.350;2023-04-01T12:27:57;9.50;99.90
47779;DHT22;33538;48.432;11.350;2023-04-01T12:30:35;9.50;99.90
47779;DHT22;33538;48.432;11.350;2023-04-01T12:33:18;9.50;99.90
47779;DHT22;33538;48.432;11.350;2023-04-01T12:35:58;9.50;99.90
47779;DHT22;33538;48.432;11.350;2023-04-01T12:38:32;9.50;99.90
47779;DHT22;33538;48.432;11.350;2023-04-01T12:41:14;9.50;99.90
47779;DHT22;33538;48.432;11.350;2023-04-01T12:44:11;9.50;99.90
47779;DHT22;33538;48.432;11.350;2023-04-01T12:46:54;9.50;99.90
47779;DHT22;33538;48.432;11.350;2023-04-01T12:49:45;9.50;99.90
47779;DHT22;33538;48.432;11.350;2023-04-01T12:52:18;9.40;99.90
47779;DHT22;33538;48.432;11.350;2023-04-01T12:55:19;9.50;99.90
47779;DHT22;33538;48.432;11.350;2023-04-01T12:58:23;9.40;99.90
47779;DHT22;33538;48.432;11.350;2023-04-01T13:01:18;9.40;99.90
47779;DHT22;33538;48.432;11.350;2023-04-01T13:04:05;9.50;99.90
47779;DHT22;33538;48.432;11.350;2023-04-01T13:06:58;9.40;99.90
47779;DHT22;33538;48.432;11.350;2023-04-01T13:09:39;9.50;99.90
47779;DHT22;33538;48.432;11.350;2023-04-01T13:12:35;9.50;99.90
47779;DHT22;33538;48.432;11.350;2023-04-01T13:15:24;9.40;99.90
47779;DHT22;33538;48.432;11.350;2023-04-01T13:17:58;9.50;99.90
47779;DHT22;33538;48.432;11.350;2023-04-01T13:20:41;9.50;99.90
47779;DHT22;33538;48.432;11.350;2023-04-01T13:23:29;9.40;99.90
47779;DHT22;33538;48.432;11.350;2023-04-01T13:26:06;9.40;99.90
47779;DHT22;33538;48.432;11.350;2023-04-01T13:28:44;9.40;99.90
47779;DHT22;33538;48.432;11.350;2023-04-01T13:31:27;9.50;99.90
47779;DHT22;33538;48.432;11.350;2023-04-01T13:34:06;9.50;99.90
47779;DHT22;33538;48.432;11.350;2023-04-01T13:36:44;9.50;99.90
47779;DHT22;33538;48.432;11.350;2023-04-01T13:39:45;9.50;99.90
47779;DHT22;33538;48.432;11.350;2023-04-01T13:42:21;9.50;99.90
47779;DHT22;33538;48.432;11.350;2023-04-01T13:44:55;9.50;99.90
47779;DHT22;33538;48.432;11.350;2023-04-01T13:50:25;9.50;99.90
47779;DHT22;33538;48.432;11.350;2023-04-01T13:55:54;9.50;99.90
47779;DHT22;33538;48.432;11.350;2023-04-01T14:01:19;9.40;99.90
47779;DHT22;33538;48.432;11.350;2023-04-01T14:04:03;9.40;99.90
47779;DHT22;33538;48.432;11.350;2023-04-01T14:06:48;9.40;99.90
47779;DHT22;33538;48.432;11.350;2023-04-01T14:09:42;9.40;99.90
47779;DHT22;33538;48.432;11.350;2023-04-01T14:12:24;9.40;99.90
47779;DHT22;33538;48.432;11.350;2023-04-01T14:15:10;9.40;99.90
47779;DHT22;33538;48.432;11.350;2023-04-01T14:17:50;9.40;99.90
47779;DHT22;33538;48.432;11.350;2023-04-01T14:20:37;9.40;99.90
47779;DHT22;33538;48.432;11.350;2023-04-01T14:23:32;9.40;99.90
47779;DHT22;33538;48.432;11.350;2023-04-01T14:26:27;9.40;99.90
47779;DHT22;33538;48.432;11.350;2023-04-01T14:29:07;9.50;99.90
47779;DHT22;33538;48.432;11.350;2023-04-01T14:31:48;9.50;99.90
47779;DHT22;33538;48.432;11.350;2023-04-01T14:34:31;9.50;99.90
47779;DHT22;33538;48.432;11.350;2023-04-01T14:37:30;9.40;99.90
47779;DHT22;33538;48.432;11.350;2023-04-01T14:40:24;9.40;99.90
47779;DHT22;33538;48.432;11.350;2023-04-01T14:43:13;9.40;99.90
47779;DHT22;33538;48.432;11.350;2023-04-01T14:45:46;9.40;99.90
47779;DHT22;33538;48.432;11.350;2023-04-01T14:48:25;9.40;99.90
47779;DHT22;33538;48.432;11.350;2023-04-01T14:51:03;9.40;99.90
47779;DHT22;33538;48.432;11.350;2023-04-01T14:53:38;9.40;99.90
47779;DHT22;33538;48.432;11.350;2023-04-01T14:56:08;9.40;99.90
47779;DHT22;33538;48.432;11.350;2023-04-01T14:58:43;9.40;99.90
47779;DHT22;33538;48.432;11.350;2023-04-01T15:01:20;9.40;99.90
47779;DHT22;33538;48.432;11.350;2023-04-01T15:03:57;9.40;99.90
47779;DHT22;33538;48.432;11.350;2023-04-01T15:06:54;9.40;99.90
47779;DHT22;33538;48.432;11.350;2023-04-01T15:09:29;9.40;99.90
47779;DHT22;33538;48.432;11.350;2023-04-01T15:12:07;9.40;99.90
47779;DHT22;33538;48.432;11.350;2023-04-01T15:14:44;9.40;99.90
47779;DHT22;33538;48.432;11.350;2023-04-01T15:17:19;9.40;99.90
47779;DHT22;33538;48.432;11.350;2023-04-01T15:20:04;9.40;99.90
47779;DHT22;33538;48.432;11.350;2023-04-01T15:22:51;9.40;99.90
47779;DHT22;33538;48.432;11.350;2023-04-01T15:25:30;9.50;99.90
47779;DHT22;33538;48.432;11.350;2023-04-01T15:28:05;9.40;99.90
47779;DHT22;33538;48.432;11.350;2023-04-01T15:30:39;9.40;99.90
47779;DHT22;33538;48.432;11.350;2023-04-01T15:33:30;9.40;99.90
47779;DHT22;33538;48.432;11.350;2023-04-01T15:36:05;9.40;99.90
47779;DHT22;33538;48.432;11.350;2023-04-01T15:38:41;9.50;99.90
47779;DHT22;33538;48.432;11.350;2023-04-01T15:41:15;9.50;99.90
47779;DHT22;33538;48.432;11.350;2023-04-01T15:43:44;9.40;99.90
47779;DHT22;33538;48.432;11.350;2023-04-01T15:46:39;9.40;99.90
47779;DHT22;33538;48.432;11.350;2023-04-01T15:49:22;9.40;99.90
47779;DHT22;33538;48.432;11.350;2023-04-01T15:52:07;9.40;99.90
47779;DHT22;33538;48.432;11.350;2023-04-01T15:54:54;9.40;99.90
47779;DHT22;33538;48.432;11.350;2023-04-01T15:57:30;9.40;99.90
47779;DHT22;33538;48.432;11.350;2023-04-01T16:00:11;9.40;99.90
47779;DHT22;33538;48.432;11.350;2023-04-01T16:02:45;9.40;99.90
47779;DHT22;33538;48.432;11.350;2023-04-01T16:05:27;9.50;99.90
47779;DHT22;33538;48.432;11.350;2023-04-01T16:08:16;9.50;99.90
47779;DHT22;33538;48.432;11.350;2023-04-01T16:11:02;9.50;99.90
47779;DHT22;33538;48.432;11.350;2023-04-01T16:13:48;9.40;99.90
47779;DHT22;33538;48.432;11.350;2023-04-01T16:16:28;9.40;99.90
47779;DHT22;33538;48.432;11.350;2023-04-01T16:19:16;9.40;99.90
47779;DHT22;33538;48.432;11.350;2023-04-01T16:21:48;9.40;99.90
47779;DHT22;33538;48.432;11.350;2023-04-01T16:24:22;9.40;99.90
47779;DHT22;33538;48.432;11.350;2023-04-01T16:26:54;9.40;99.90
47779;DHT22;33538;48.432;11.350;2023-04-01T16:29:35;9.40;99.90
47779;DHT22;33538;48.432;11.350;2023-04-01T16:32:21;9.40;99.90
47779;DHT22;33538;48.432;11.350;2023-04-01T16:34:58;9.40;99.90
47779;DHT22;33538;48.432;11.350;2023-04-01T16:37:33;9.40;99.90
47779;DHT22;33538;48.432;11.350;2023-04-01T16:40:12;9.40;99.90
47779;DHT22;33538;48.432;11.350;2023-04-01T16:42:43;9.40;99.90
47779;DHT22;33538;48.432;11.350;2023-04-01T16:45:33;9.40;99.90
47779;DHT22;33538;48.432;11.350;2023-04-01T16:48:10;9.40;99.90
47779;DHT22;33538;48.432;11.350;2023-04-01T16:50:53;9.40;99.90
47779;DHT22;33538;48.432;11.350;2023-04-01T16:53:34;9.40;99.90
47779;DHT22;33538;48.432;11.350;2023-04-01T16:56:11;9.40;99.90
47779;DHT22;33538;48.432;11.350;2023-04-01T16:58:42;9.40;99.90
47779;DHT22;33538;48.432;11.350;2023-04-01T17:01:14;9.40;99.90
47779;DHT22;33538;48.432;11.350;2023-04-01T17:03:45;9.40;99.90
47779;DHT22;33538;48.432;11.350;2023-04-01T17:06:28;9.40;99.90
47779;DHT22;33538;48.432;11.350;2023-04-01T17:09:07;9.40;99.90
47779;DHT22;33538;48.432;11.350;2023-04-01T17:11:42;9.40;99.90
47779;DHT22;33538;48.432;11.350;2023-04-01T17:14:18;9.40;99.90
47779;DHT22;33538;48.432;11.350;2023-04-01T17:17:15;9.40;99.90
47779;DHT22;33538;48.432;11.350;2023-04-01T17:20:01;9.40;99.90
47779;DHT22;33538;48.432;11.350;2023-04-01T17:22:33;9.40;99.90
47779;DHT22;33538;48.432;11.350;2023-04-01T17:25:19;9.40;99.90
47779;DHT22;33538;48.432;11.350;2023-04-01T17:27:51;9.40;99.90
47779;DHT22;33538;48.432;11.350;2023-04-01T17:30:30;9.40;99.90
47779;DHT22;33538;48.432;11.350;2023-04-01T17:35:58;9.40;99.90
47779;DHT22;33538;48.432;11.350;2023-04-01T17:38:40;9.40;99.90
47779;DHT22;33538;48.432;11.350;2023-04-01T17:41:19;9.30;99.90
47779;DHT22;33538;48.432;11.350;2023-04-01T17:43:54;9.40;99.90
47779;DHT22;33538;48.432;11.350;2023-04-01T17:46:31;9.30;99.90
47779;DHT22;33538;48.432;11.350;2023-04-01T17:49:05;9.30;99.90